sensor_id;sensor_type;location;lat;lon;timestamp;pressure;altitude;pressure_sealevel;temperature;humidity
12182;BME280;6154;51.550;12.138;2022-07-10T00:01:08;101104.78;;;19.72;46.64
12182;BME280;6154;51.550;12.138;2022-07-10T00:03:36;101101.37;;;19.70;46.64
12182;BME280;6154;51.550;12.138;2022-07-10T00:06:05;101107.50;;;19.61;47.07
12182;BME280;6154;51.550;12.138;2022-07-10T00:08:34;101103.62;;;19.65;46.78
12182;BME280;6154;51.550;12.138;2022-07-10T00:11:02;101100.66;;;19.68;46.59
12182;BME280;6154;51.550;12.138;2022-07-10T00:13:30;101102.63;;;19.66;46.92
12182;BME280;6154;51.550;12.138;2022-07-10T00:16:00;101103.81;;;19.73;46.52
12182;BME280;6154;51.550;12.138;2022-07-10T00:18:28;101098.69;;;19.70;46.82
12182;BME280;6154;51.550;12.138;2022-07-10T00:20:57;101101.03;;;19.74;46.54
12182;BME280;6154;51.550;12.138;2022-07-10T00:23:25;101098.19;;;19.76;46.44
12182;BME280;6154;51.550;12.138;2022-07-10T00:25:53;101095.38;;;19.77;46.67
12182;BME280;6154;51.550;12.138;2022-07-10T00:28:21;101092.84;;;19.76;46.67
12182;BME280;6154;51.550;12.138;2022-07-10T00:30:50;101094.81;;;19.63;47.44
12182;BME280;6154;51.550;12.138;2022-07-10T00:33:19;101086.50;;;19.66;46.92
12182;BME280;6154;51.550;12.138;2022-07-10T00:35:48;101084.53;;;19.68;46.72
12182;BME280;6154;51.550;12.138;2022-07-10T00:38:16;101085.31;;;19.59;47.00
12182;BME280;6154;51.550;12.138;2022-07-10T00:40:44;101083.34;;;19.49;47.30
12182;BME280;6154;51.550;12.138;2022-07-10T00:43:12;101081.41;;;19.40;47.29
12182;BME280;6154;51.550;12.138;2022-07-10T00:45:40;101073.66;;;19.15;48.47
12182;BME280;6154;51.550;12.138;2022-07-10T00:48:09;101073.00;;;19.22;47.55
12182;BME280;6154;51.550;12.138;2022-07-10T00:50:40;101068.16;;;19.16;47.77
12182;BME280;6154;51.550;12.138;2022-07-10T00:53:09;101062.69;;;18.95;48.98
12182;BME280;6154;51.550;12.138;2022-07-10T00:55:38;101074.41;;;18.94;48.22
12182;BME280;6154;51.550;12.138;2022-07-10T00:58:08;101083.16;;;18.97;48.38
12182;BME280;6154;51.550;12.138;2022-07-10T01:00:38;101072.78;;;18.81;49.01
12182;BME280;6154;51.550;12.138;2022-07-10T01:03:07;101077.31;;;18.80;48.56
12182;BME280;6154;51.550;12.138;2022-07-10T01:05:36;101078.16;;;18.81;48.47
12182;BME280;6154;51.550;12.138;2022-07-10T01:08:07;101081.81;;;18.80;48.60
12182;BME280;6154;51.550;12.138;2022-07-10T01:10:35;101076.19;;;18.83;48.57
12182;BME280;6154;51.550;12.138;2022-07-10T01:13:05;101078.03;;;18.93;47.88
12182;BME280;6154;51.550;12.138;2022-07-10T01:15:34;101080.47;;;18.97;47.81
12182;BME280;6154;51.550;12.138;2022-07-10T01:18:03;101079.50;;;18.98;47.99
12182;BME280;6154;51.550;12.138;2022-07-10T01:20:32;101085.25;;;19.04;47.74
12182;BME280;6154;51.550;12.138;2022-07-10T01:23:02;101082.91;;;19.00;47.91
12182;BME280;6154;51.550;12.138;2022-07-10T01:25:30;101091.81;;;19.11;47.69
12182;BME280;6154;51.550;12.138;2022-07-10T01:27:59;101079.25;;;19.01;48.20
12182;BME280;6154;51.550;12.138;2022-07-10T01:30:27;101072.91;;;19.13;47.46
12182;BME280;6154;51.550;12.138;2022-07-10T01:32:55;101066.19;;;19.18;47.49
12182;BME280;6154;51.550;12.138;2022-07-10T01:35:23;101070.34;;;19.11;47.91
12182;BME280;6154;51.550;12.138;2022-07-10T01:37:52;101072.91;;;19.13;47.54
12182;BME280;6154;51.550;12.138;2022-07-10T01:40:21;101069.75;;;19.08;47.86
12182;BME280;6154;51.550;12.138;2022-07-10T01:42:50;101067.53;;;19.13;47.74
12182;BME280;6154;51.550;12.138;2022-07-10T01:45:18;101062.41;;;19.10;48.08
12182;BME280;6154;51.550;12.138;2022-07-10T01:47:47;101061.44;;;19.11;48.00
12182;BME280;6154;51.550;12.138;2022-07-10T01:50:15;101068.25;;;19.04;48.30
12182;BME280;6154;51.550;12.138;2022-07-10T01:52:43;101064.00;;;19.12;47.92
12182;BME280;6154;51.550;12.138;2022-07-10T01:55:11;101056.78;;;19.13;47.96
12182;BME280;6154;51.550;12.138;2022-07-10T01:57:41;101052.91;;;19.17;47.96
12182;BME280;6154;51.550;12.138;2022-07-10T02:00:10;101054.59;;;19.18;48.14
12182;BME280;6154;51.550;12.138;2022-07-10T02:02:39;101058.28;;;19.17;47.97
12182;BME280;6154;51.550;12.138;2022-07-10T02:05:08;101048.50;;;19.16;48.15
12182;BME280;6154;51.550;12.138;2022-07-10T02:07:35;101055.09;;;19.12;48.61
12182;BME280;6154;51.550;12.138;2022-07-10T02:10:04;101050.56;;;19.12;48.45
12182;BME280;6154;51.550;12.138;2022-07-10T02:12:33;101046.19;;;19.11;48.44
12182;BME280;6154;51.550;12.138;2022-07-10T02:15:03;101044.34;;;19.12;48.53
12182;BME280;6154;51.550;12.138;2022-07-10T02:17:31;101049.00;;;19.10;48.80
12182;BME280;6154;51.550;12.138;2022-07-10T02:19:59;101039.84;;;19.12;48.45
12182;BME280;6154;51.550;12.138;2022-07-10T02:22:27;101039.50;;;19.17;48.34
12182;BME280;6154;51.550;12.138;2022-07-10T02:24:55;101043.03;;;19.17;48.59
12182;BME280;6154;51.550;12.138;2022-07-10T02:27:23;101044.13;;;19.15;48.71
12182;BME280;6154;51.550;12.138;2022-07-10T02:29:52;101037.66;;;19.17;48.67
12182;BME280;6154;51.550;12.138;2022-07-10T02:32:21;101037.91;;;19.14;48.56
12182;BME280;6154;51.550;12.138;2022-07-10T02:34:50;101035.94;;;19.16;48.55
12182;BME280;6154;51.550;12.138;2022-07-10T02:37:18;101037.91;;;19.14;48.67
12182;BME280;6154;51.550;12.138;2022-07-10T02:39:46;101040.69;;;19.13;48.87
12182;BME280;6154;51.550;12.138;2022-07-10T02:42:14;101037.28;;;19.11;48.78
12182;BME280;6154;51.550;12.138;2022-07-10T02:44:42;101038.00;;;19.13;48.85
12182;BME280;6154;51.550;12.138;2022-07-10T02:47:11;101039.34;;;19.18;48.97
12182;BME280;6154;51.550;12.138;2022-07-10T02:49:41;101036.09;;;19.15;48.72
12182;BME280;6154;51.550;12.138;2022-07-10T02:52:10;101034.34;;;19.14;49.13
12182;BME280;6154;51.550;12.138;2022-07-10T02:54:38;101036.81;;;19.17;48.82
12182;BME280;6154;51.550;12.138;2022-07-10T02:57:06;101031.66;;;19.14;49.13
12182;BME280;6154;51.550;12.138;2022-07-10T02:59:34;101028.88;;;19.15;49.29
12182;BME280;6154;51.550;12.138;2022-07-10T03:02:03;101033.03;;;19.08;49.81
12182;BME280;6154;51.550;12.138;2022-07-10T03:04:31;101030.22;;;19.10;49.24
12182;BME280;6154;51.550;12.138;2022-07-10T03:07:01;101032.03;;;19.20;49.17
12182;BME280;6154;51.550;12.138;2022-07-10T03:09:29;101016.56;;;19.02;50.57
12182;BME280;6154;51.550;12.138;2022-07-10T03:11:57;101018.06;;;18.94;50.37
12182;BME280;6154;51.550;12.138;2022-07-10T03:14:26;101015.34;;;19.06;49.83
12182;BME280;6154;51.550;12.138;2022-07-10T03:16:54;101021.59;;;18.95;50.42
12182;BME280;6154;51.550;12.138;2022-07-10T03:19:22;101028.25;;;19.12;49.85
12182;BME280;6154;51.550;12.138;2022-07-10T03:21:50;101018.75;;;19.19;49.36
12182;BME280;6154;51.550;12.138;2022-07-10T03:24:20;101018.38;;;19.12;49.92
12182;BME280;6154;51.550;12.138;2022-07-10T03:26:48;101012.97;;;19.23;49.29
12182;BME280;6154;51.550;12.138;2022-07-10T03:29:16;101006.16;;;19.19;49.62
12182;BME280;6154;51.550;12.138;2022-07-10T03:31:49;101005.06;;;19.22;49.92
12182;BME280;6154;51.550;12.138;2022-07-10T03:34:17;101007.13;;;19.30;49.62
12182;BME280;6154;51.550;12.138;2022-07-10T03:36:45;101004.78;;;19.36;49.15
12182;BME280;6154;51.550;12.138;2022-07-10T03:39:13;101004.94;;;19.23;49.96
12182;BME280;6154;51.550;12.138;2022-07-10T03:41:42;101002.25;;;19.23;50.14
12182;BME280;6154;51.550;12.138;2022-07-10T03:44:11;101010.28;;;19.23;50.06
12182;BME280;6154;51.550;12.138;2022-07-10T03:46:39;101018.34;;;19.35;49.27
12182;BME280;6154;51.550;12.138;2022-07-10T03:49:07;101015.56;;;19.25;50.28
12182;BME280;6154;51.550;12.138;2022-07-10T03:51:35;101011.62;;;19.29;49.68
12182;BME280;6154;51.550;12.138;2022-07-10T03:54:03;101014.72;;;19.13;50.67
12182;BME280;6154;51.550;12.138;2022-07-10T03:56:32;101024.47;;;19.26;49.64
12182;BME280;6154;51.550;12.138;2022-07-10T03:59:18;101013.13;;;19.11;50.49
12182;BME280;6154;51.550;12.138;2022-07-10T04:01:46;101016.78;;;19.21;49.91
12182;BME280;6154;51.550;12.138;2022-07-10T04:04:15;101019.50;;;19.10;50.66
12182;BME280;6154;51.550;12.138;2022-07-10T04:06:43;101022.88;;;19.12;50.32
12182;BME280;6154;51.550;12.138;2022-07-10T04:09:11;101014.75;;;18.91;51.87
12182;BME280;6154;51.550;12.138;2022-07-10T04:11:40;101018.28;;;19.03;51.12
12182;BME280;6154;51.550;12.138;2022-07-10T04:14:08;101017.53;;;19.01;51.74
12182;BME280;6154;51.550;12.138;2022-07-10T04:16:37;101020.69;;;19.17;50.76
12182;BME280;6154;51.550;12.138;2022-07-10T04:19:05;101010.19;;;19.14;50.89
12182;BME280;6154;51.550;12.138;2022-07-10T04:21:34;101028.88;;;19.15;51.25
12182;BME280;6154;51.550;12.138;2022-07-10T04:24:04;101025.84;;;18.98;52.15
12182;BME280;6154;51.550;12.138;2022-07-10T04:26:33;101015.34;;;19.17;51.16
12182;BME280;6154;51.550;12.138;2022-07-10T04:29:01;101024.38;;;19.16;51.50
12182;BME280;6154;51.550;12.138;2022-07-10T04:31:29;101017.28;;;19.04;52.64
12182;BME280;6154;51.550;12.138;2022-07-10T04:33:59;101013.13;;;19.22;51.58
12182;BME280;6154;51.550;12.138;2022-07-10T04:36:27;101012.91;;;19.03;53.00
12182;BME280;6154;51.550;12.138;2022-07-10T04:38:57;101030.59;;;19.16;52.29
12182;BME280;6154;51.550;12.138;2022-07-10T04:41:25;101014.84;;;19.12;53.10
12182;BME280;6154;51.550;12.138;2022-07-10T04:43:53;101014.59;;;19.04;53.74
12182;BME280;6154;51.550;12.138;2022-07-10T04:46:22;101020.66;;;19.28;52.53
12182;BME280;6154;51.550;12.138;2022-07-10T04:48:50;101024.97;;;19.19;53.54
12182;BME280;6154;51.550;12.138;2022-07-10T04:51:19;101020.41;;;19.31;52.69
12182;BME280;6154;51.550;12.138;2022-07-10T04:53:48;101021.13;;;19.33;52.79
12182;BME280;6154;51.550;12.138;2022-07-10T04:56:16;101030.16;;;19.32;52.84
12182;BME280;6154;51.550;12.138;2022-07-10T04:58:44;101024.69;;;19.22;53.66
12182;BME280;6154;51.550;12.138;2022-07-10T05:01:18;101032.03;;;19.20;53.58
12182;BME280;6154;51.550;12.138;2022-07-10T05:03:46;101029.22;;;19.22;53.07
12182;BME280;6154;51.550;12.138;2022-07-10T05:06:15;101033.59;;;19.23;53.46
12182;BME280;6154;51.550;12.138;2022-07-10T05:08:45;101034.59;;;19.22;53.26
12182;BME280;6154;51.550;12.138;2022-07-10T05:11:13;101036.44;;;19.10;53.76
12182;BME280;6154;51.550;12.138;2022-07-10T05:13:41;101037.44;;;18.98;55.35
12182;BME280;6154;51.550;12.138;2022-07-10T05:16:12;101038.75;;;18.92;55.55
12182;BME280;6154;51.550;12.138;2022-07-10T05:18:46;101047.56;;;18.94;54.94
12182;BME280;6154;51.550;12.138;2022-07-10T05:21:15;101043.16;;;18.71;56.17
12182;BME280;6154;51.550;12.138;2022-07-10T05:23:44;101041.53;;;18.46;58.36
12182;BME280;6154;51.550;12.138;2022-07-10T05:26:13;101050.16;;;18.27;57.86
12182;BME280;6154;51.550;12.138;2022-07-10T05:28:42;101049.19;;;18.28;56.21
12182;BME280;6154;51.550;12.138;2022-07-10T05:31:10;101055.13;;;18.21;57.40
12182;BME280;6154;51.550;12.138;2022-07-10T05:33:38;101047.09;;;18.21;57.09
12182;BME280;6154;51.550;12.138;2022-07-10T05:36:08;101051.47;;;18.22;57.43
12182;BME280;6154;51.550;12.138;2022-07-10T05:38:36;101064.75;;;18.23;57.16
12182;BME280;6154;51.550;12.138;2022-07-10T05:41:06;101075.44;;;18.12;60.09
12182;BME280;6154;51.550;12.138;2022-07-10T05:43:35;101064.25;;;18.18;57.90
12182;BME280;6154;51.550;12.138;2022-07-10T05:46:03;101057.28;;;18.04;58.71
12182;BME280;6154;51.550;12.138;2022-07-10T05:48:33;101054.00;;;17.77;59.40
12182;BME280;6154;51.550;12.138;2022-07-10T05:51:02;101049.25;;;17.80;57.93
12182;BME280;6154;51.550;12.138;2022-07-10T05:53:50;101045.59;;;17.81;58.30
12182;BME280;6154;51.550;12.138;2022-07-10T05:56:20;101048.56;;;17.90;57.17
12182;BME280;6154;51.550;12.138;2022-07-10T05:58:48;101044.84;;;18.03;56.93
12182;BME280;6154;51.550;12.138;2022-07-10T06:01:17;101037.06;;;18.12;56.92
12182;BME280;6154;51.550;12.138;2022-07-10T06:03:45;101034.25;;;18.13;58.36
12182;BME280;6154;51.550;12.138;2022-07-10T06:06:14;101021.53;;;18.28;57.02
12182;BME280;6154;51.550;12.138;2022-07-10T06:08:43;101026.63;;;18.31;57.38
12182;BME280;6154;51.550;12.138;2022-07-10T06:11:12;101029.13;;;18.45;56.59
12182;BME280;6154;51.550;12.138;2022-07-10T06:13:42;101028.88;;;18.48;56.76
12182;BME280;6154;51.550;12.138;2022-07-10T06:16:10;101031.34;;;18.74;57.43
12182;BME280;6154;51.550;12.138;2022-07-10T06:18:38;101037.91;;;19.03;57.12
12182;BME280;6154;51.550;12.138;2022-07-10T06:21:07;101032.72;;;19.34;56.54
12182;BME280;6154;51.550;12.138;2022-07-10T06:23:36;101030.03;;;19.45;57.13
12182;BME280;6154;51.550;12.138;2022-07-10T06:26:04;101032.81;;;19.66;57.11
12182;BME280;6154;51.550;12.138;2022-07-10T06:28:34;101035.16;;;19.80;56.41
12182;BME280;6154;51.550;12.138;2022-07-10T06:31:04;101027.75;;;20.04;56.13
12182;BME280;6154;51.550;12.138;2022-07-10T06:33:32;101035.12;;;20.33;55.56
12182;BME280;6154;51.550;12.138;2022-07-10T06:36:02;101025.78;;;20.48;55.53
12182;BME280;6154;51.550;12.138;2022-07-10T06:38:31;101026.22;;;20.53;55.27
12182;BME280;6154;51.550;12.138;2022-07-10T06:40:59;101032.09;;;20.68;55.08
12182;BME280;6154;51.550;12.138;2022-07-10T06:43:28;101038.56;;;20.56;55.54
12182;BME280;6154;51.550;12.138;2022-07-10T06:45:56;101038.22;;;20.80;54.89
12182;BME280;6154;51.550;12.138;2022-07-10T06:48:26;101036.97;;;20.84;55.00
12182;BME280;6154;51.550;12.138;2022-07-10T06:50:54;101037.00;;;20.93;54.82
12182;BME280;6154;51.550;12.138;2022-07-10T06:53:22;101039.88;;;21.02;54.20
12182;BME280;6154;51.550;12.138;2022-07-10T06:55:53;101043.66;;;20.89;54.24
12182;BME280;6154;51.550;12.138;2022-07-10T06:58:21;101049.09;;;20.69;54.36
12182;BME280;6154;51.550;12.138;2022-07-10T07:00:50;101039.84;;;20.61;54.27
12182;BME280;6154;51.550;12.138;2022-07-10T07:03:18;101049.63;;;20.62;54.33
12182;BME280;6154;51.550;12.138;2022-07-10T07:05:48;101047.84;;;20.52;54.59
12182;BME280;6154;51.550;12.138;2022-07-10T07:08:16;101049.19;;;20.57;54.35
12182;BME280;6154;51.550;12.138;2022-07-10T07:10:44;101053.78;;;20.46;54.88
12182;BME280;6154;51.550;12.138;2022-07-10T07:13:12;101046.34;;;20.38;55.03
12182;BME280;6154;51.550;12.138;2022-07-10T07:15:40;101049.63;;;20.62;54.53
12182;BME280;6154;51.550;12.138;2022-07-10T07:18:15;101048.44;;;20.76;54.30
12182;BME280;6154;51.550;12.138;2022-07-10T07:20:43;101042.28;;;20.95;53.96
12182;BME280;6154;51.550;12.138;2022-07-10T07:23:31;101036.03;;;20.94;53.94
12182;BME280;6154;51.550;12.138;2022-07-10T07:25:59;101032.25;;;21.07;53.70
12182;BME280;6154;51.550;12.138;2022-07-10T07:28:27;101037.37;;;21.19;53.46
12182;BME280;6154;51.550;12.138;2022-07-10T07:30:55;101048.19;;;21.29;53.14
12182;BME280;6154;51.550;12.138;2022-07-10T07:33:26;101045.44;;;21.10;52.66
12182;BME280;6154;51.550;12.138;2022-07-10T07:35:55;101049.44;;;21.25;52.57
12182;BME280;6154;51.550;12.138;2022-07-10T07:38:23;101052.19;;;21.35;52.60
12182;BME280;6154;51.550;12.138;2022-07-10T07:40:52;101046.53;;;21.38;52.41
12182;BME280;6154;51.550;12.138;2022-07-10T07:43:20;101054.59;;;21.28;52.15
12182;BME280;6154;51.550;12.138;2022-07-10T07:45:49;101053.31;;;21.42;52.12
12182;BME280;6154;51.550;12.138;2022-07-10T07:48:17;101055.88;;;21.53;52.05
12182;BME280;6154;51.550;12.138;2022-07-10T07:50:46;101050.91;;;21.39;52.13
12182;BME280;6154;51.550;12.138;2022-07-10T07:53:14;101053.50;;;21.60;51.87
12182;BME280;6154;51.550;12.138;2022-07-10T07:55:42;101043.16;;;21.45;51.70
12182;BME280;6154;51.550;12.138;2022-07-10T07:58:13;101049.41;;;21.65;51.68
12182;BME280;6154;51.550;12.138;2022-07-10T08:00:42;101051.13;;;21.86;51.28
12182;BME280;6154;51.550;12.138;2022-07-10T08:03:10;101044.88;;;21.95;51.15
12182;BME280;6154;51.550;12.138;2022-07-10T08:05:39;101044.13;;;21.93;51.42
12182;BME280;6154;51.550;12.138;2022-07-10T08:08:12;101052.22;;;21.93;51.04
12182;BME280;6154;51.550;12.138;2022-07-10T08:10:48;101040.06;;;22.18;50.92
12182;BME280;6154;51.550;12.138;2022-07-10T08:13:18;101038.50;;;22.25;50.51
12182;BME280;6154;51.550;12.138;2022-07-10T08:15:47;101041.19;;;22.25;50.16
12182;BME280;6154;51.550;12.138;2022-07-10T08:18:20;101028.78;;;22.42;50.20
12182;BME280;6154;51.550;12.138;2022-07-10T08:20:49;101035.03;;;22.32;50.34
12182;BME280;6154;51.550;12.138;2022-07-10T08:23:17;101024.94;;;22.44;50.20
12182;BME280;6154;51.550;12.138;2022-07-10T08:25:45;101029.19;;;22.47;50.14
12182;BME280;6154;51.550;12.138;2022-07-10T08:28:13;101034.72;;;22.55;49.67
12182;BME280;6154;51.550;12.138;2022-07-10T08:30:48;101033.47;;;22.40;48.99
12182;BME280;6154;51.550;12.138;2022-07-10T08:33:17;101029.72;;;22.60;49.92
12182;BME280;6154;51.550;12.138;2022-07-10T08:35:45;101036.63;;;22.25;49.24
12182;BME280;6154;51.550;12.138;2022-07-10T08:38:13;101025.91;;;22.53;49.27
12182;BME280;6154;51.550;12.138;2022-07-10T08:40:42;101030.53;;;22.70;49.20
12182;BME280;6154;51.550;12.138;2022-07-10T08:43:10;101028.53;;;22.72;49.01
12182;BME280;6154;51.550;12.138;2022-07-10T08:45:40;101025.25;;;22.88;48.59
12182;BME280;6154;51.550;12.138;2022-07-10T08:48:12;101037.34;;;22.18;47.30
12182;BME280;6154;51.550;12.138;2022-07-10T08:50:44;101030.91;;;22.48;47.77
12182;BME280;6154;51.550;12.138;2022-07-10T08:53:18;101025.44;;;22.67;47.48
12182;BME280;6154;51.550;12.138;2022-07-10T08:55:50;101028.94;;;22.87;46.76
12182;BME280;6154;51.550;12.138;2022-07-10T08:58:19;101035.19;;;22.87;47.57
12182;BME280;6154;51.550;12.138;2022-07-10T09:00:49;101025.03;;;22.99;47.60
12182;BME280;6154;51.550;12.138;2022-07-10T09:03:19;101037.91;;;23.15;47.67
12182;BME280;6154;51.550;12.138;2022-07-10T09:05:47;101038.38;;;23.01;46.79
12182;BME280;6154;51.550;12.138;2022-07-10T09:08:22;101030.53;;;23.07;47.46
12182;BME280;6154;51.550;12.138;2022-07-10T09:10:50;101032.09;;;23.10;46.22
12182;BME280;6154;51.550;12.138;2022-07-10T09:13:19;101034.25;;;23.24;46.75
12182;BME280;6154;51.550;12.138;2022-07-10T09:15:50;101028.97;;;23.50;46.49
12182;BME280;6154;51.550;12.138;2022-07-10T09:18:23;101021.03;;;23.48;45.04
12182;BME280;6154;51.550;12.138;2022-07-10T09:20:52;101025.66;;;23.38;44.14
12182;BME280;6154;51.550;12.138;2022-07-10T09:23:22;101021.59;;;23.70;46.06
12182;BME280;6154;51.550;12.138;2022-07-10T09:25:53;101019.44;;;23.56;45.47
12182;BME280;6154;51.550;12.138;2022-07-10T09:28:22;101009.69;;;23.45;45.46
12182;BME280;6154;51.550;12.138;2022-07-10T09:30:51;101013.59;;;23.15;44.53
12182;BME280;6154;51.550;12.138;2022-07-10T09:33:22;101019.69;;;23.17;45.95
12182;BME280;6154;51.550;12.138;2022-07-10T09:35:58;101023.19;;;23.00;44.74
12182;BME280;6154;51.550;12.138;2022-07-10T09:38:53;101022.16;;;22.63;43.62
12182;BME280;6154;51.550;12.138;2022-07-10T09:41:24;101014.28;;;22.89;43.32
12182;BME280;6154;51.550;12.138;2022-07-10T09:43:53;101019.47;;;22.63;44.02
12182;BME280;6154;51.550;12.138;2022-07-10T09:46:24;101022.31;;;22.62;43.95
12182;BME280;6154;51.550;12.138;2022-07-10T09:49:05;101019.28;;;22.84;44.72
12182;BME280;6154;51.550;12.138;2022-07-10T09:51:36;101024.91;;;22.54;43.64
12182;BME280;6154;51.550;12.138;2022-07-10T09:54:13;101023.81;;;22.47;44.31
12182;BME280;6154;51.550;12.138;2022-07-10T09:56:44;101028.78;;;22.42;45.08
12182;BME280;6154;51.550;12.138;2022-07-10T09:59:14;101031.81;;;22.19;44.25
12182;BME280;6154;51.550;12.138;2022-07-10T10:01:45;101028.94;;;22.30;45.27
12182;BME280;6154;51.550;12.138;2022-07-10T10:04:17;101020.34;;;22.54;44.73
12182;BME280;6154;51.550;12.138;2022-07-10T10:06:50;101024.25;;;22.79;44.19
12182;BME280;6154;51.550;12.138;2022-07-10T10:09:22;101029.22;;;23.11;44.10
12182;BME280;6154;51.550;12.138;2022-07-10T10:11:56;101018.44;;;22.74;43.70
12182;BME280;6154;51.550;12.138;2022-07-10T10:14:27;101024.78;;;23.20;43.97
12182;BME280;6154;51.550;12.138;2022-07-10T10:16:56;101016.53;;;23.39;44.40
12182;BME280;6154;51.550;12.138;2022-07-10T10:19:26;101012.47;;;23.35;44.24
12182;BME280;6154;51.550;12.138;2022-07-10T10:22:12;101015.75;;;23.29;43.11
12182;BME280;6154;51.550;12.138;2022-07-10T10:24:43;101015.00;;;23.55;43.74
12182;BME280;6154;51.550;12.138;2022-07-10T10:27:14;101009.78;;;24.15;43.81
12182;BME280;6154;51.550;12.138;2022-07-10T10:29:43;101006.69;;;24.45;42.57
12182;BME280;6154;51.550;12.138;2022-07-10T10:32:13;101012.56;;;24.23;41.31
12182;BME280;6154;51.550;12.138;2022-07-10T10:34:43;101004.44;;;24.67;41.87
12182;BME280;6154;51.550;12.138;2022-07-10T10:37:35;101000.13;;;24.90;40.20
12182;BME280;6154;51.550;12.138;2022-07-10T10:40:05;101001.47;;;24.94;38.61
12182;BME280;6154;51.550;12.138;2022-07-10T10:42:37;101001.38;;;24.70;39.13
12182;BME280;6154;51.550;12.138;2022-07-10T10:45:23;100995.19;;;25.28;41.18
12182;BME280;6154;51.550;12.138;2022-07-10T10:47:58;101006.97;;;25.02;38.43
12182;BME280;6154;51.550;12.138;2022-07-10T10:50:49;101001.00;;;25.49;39.73
12182;BME280;6154;51.550;12.138;2022-07-10T10:53:19;101003.69;;;25.41;38.53
12182;BME280;6154;51.550;12.138;2022-07-10T10:56:21;100996.06;;;25.36;40.69
12182;BME280;6154;51.550;12.138;2022-07-10T10:58:49;100991.97;;;25.32;36.45
12182;BME280;6154;51.550;12.138;2022-07-10T11:01:29;100995.44;;;25.83;40.93
12182;BME280;6154;51.550;12.138;2022-07-10T11:04:13;100997.44;;;25.65;38.09
12182;BME280;6154;51.550;12.138;2022-07-10T11:06:44;100993.81;;;25.23;37.59
12182;BME280;6154;51.550;12.138;2022-07-10T11:09:26;100989.75;;;25.19;39.45
12182;BME280;6154;51.550;12.138;2022-07-10T11:12:00;101004.69;;;24.89;38.43
12182;BME280;6154;51.550;12.138;2022-07-10T11:14:29;100997.44;;;24.64;39.37
12182;BME280;6154;51.550;12.138;2022-07-10T11:16:58;101002.34;;;24.34;39.95
12182;BME280;6154;51.550;12.138;2022-07-10T11:19:28;101009.00;;;24.22;41.63
12182;BME280;6154;51.550;12.138;2022-07-10T11:22:19;101002.34;;;23.91;40.91
12182;BME280;6154;51.550;12.138;2022-07-10T11:24:59;101008.69;;;23.99;40.30
12182;BME280;6154;51.550;12.138;2022-07-10T11:27:42;101008.38;;;24.46;40.60
12182;BME280;6154;51.550;12.138;2022-07-10T11:30:18;101003.03;;;24.97;40.26
12182;BME280;6154;51.550;12.138;2022-07-10T11:32:46;100994.66;;;25.16;40.93
12182;BME280;6154;51.550;12.138;2022-07-10T11:35:16;100992.47;;;25.19;40.95
12182;BME280;6154;51.550;12.138;2022-07-10T11:37:52;100977.75;;;25.30;41.04
12182;BME280;6154;51.550;12.138;2022-07-10T11:40:21;100971.56;;;25.87;39.50
12182;BME280;6154;51.550;12.138;2022-07-10T11:42:51;100968.25;;;26.48;40.14
12182;BME280;6154;51.550;12.138;2022-07-10T11:45:25;100972.19;;;26.38;39.20
12182;BME280;6154;51.550;12.138;2022-07-10T11:47:53;100964.41;;;26.10;37.23
12182;BME280;6154;51.550;12.138;2022-07-10T11:50:22;100973.91;;;26.06;39.89
12182;BME280;6154;51.550;12.138;2022-07-10T11:52:53;100969.34;;;25.98;40.02
12182;BME280;6154;51.550;12.138;2022-07-10T11:55:22;100970.28;;;25.32;39.15
12182;BME280;6154;51.550;12.138;2022-07-10T11:57:51;100976.34;;;24.68;39.21
12182;BME280;6154;51.550;12.138;2022-07-10T12:00:21;100976.13;;;24.61;40.07
12182;BME280;6154;51.550;12.138;2022-07-10T12:02:51;100983.84;;;24.48;40.36
12182;BME280;6154;51.550;12.138;2022-07-10T12:05:35;100969.78;;;24.44;40.50
12182;BME280;6154;51.550;12.138;2022-07-10T12:08:05;100973.28;;;24.71;38.44
12182;BME280;6154;51.550;12.138;2022-07-10T12:10:35;100977.34;;;24.75;40.01
12182;BME280;6154;51.550;12.138;2022-07-10T12:13:04;100969.72;;;25.04;39.61
12182;BME280;6154;51.550;12.138;2022-07-10T12:15:34;100963.00;;;25.16;38.85
12182;BME280;6154;51.550;12.138;2022-07-10T12:18:06;100961.94;;;25.09;39.08
12182;BME280;6154;51.550;12.138;2022-07-10T12:20:35;100959.47;;;25.65;38.88
12182;BME280;6154;51.550;12.138;2022-07-10T12:23:05;100951.16;;;26.15;38.31
12182;BME280;6154;51.550;12.138;2022-07-10T12:25:34;100945.91;;;26.77;37.82
12182;BME280;6154;51.550;12.138;2022-07-10T12:28:02;100949.66;;;26.76;37.62
12182;BME280;6154;51.550;12.138;2022-07-10T12:30:38;100948.91;;;26.82;37.91
12182;BME280;6154;51.550;12.138;2022-07-10T12:33:09;100954.03;;;26.14;35.43
12182;BME280;6154;51.550;12.138;2022-07-10T12:35:53;100958.50;;;25.98;37.48
12182;BME280;6154;51.550;12.138;2022-07-10T12:38:24;100956.31;;;25.77;35.56
12182;BME280;6154;51.550;12.138;2022-07-10T12:41:06;100958.31;;;25.84;36.62
12182;BME280;6154;51.550;12.138;2022-07-10T12:43:35;100953.41;;;25.87;35.33
12182;BME280;6154;51.550;12.138;2022-07-10T12:46:07;100948.28;;;26.17;37.69
12182;BME280;6154;51.550;12.138;2022-07-10T12:48:36;100951.59;;;26.35;37.21
12182;BME280;6154;51.550;12.138;2022-07-10T12:51:25;100941.44;;;26.45;36.43
12182;BME280;6154;51.550;12.138;2022-07-10T12:53:55;100938.78;;;26.76;34.67
12182;BME280;6154;51.550;12.138;2022-07-10T12:56:31;100943.28;;;27.23;35.62
12182;BME280;6154;51.550;12.138;2022-07-10T12:59:01;100938.56;;;26.86;33.83
12182;BME280;6154;51.550;12.138;2022-07-10T13:01:42;100932.72;;;27.28;35.96
12182;BME280;6154;51.550;12.138;2022-07-10T13:04:11;100939.34;;;26.94;36.06
12182;BME280;6154;51.550;12.138;2022-07-10T13:06:40;100934.09;;;26.93;36.66